createdAt,value
2016-11-03T00:00:46.626Z,0
2016-11-03T00:01:59.755Z,0
2016-11-03T00:03:12.240Z,0
2016-11-03T00:04:25.848Z,0
2016-11-03T00:05:38.907Z,0
2016-11-03T00:06:52.467Z,0
2016-11-03T00:08:04.549Z,0
2016-11-03T00:09:18.150Z,0
2016-11-03T00:10:31.772Z,0
2016-11-03T00:11:44.301Z,0
2016-11-03T00:12:56.809Z,0
2016-11-03T00:14:10.332Z,0
2016-11-03T00:15:23.357Z,0
2016-11-03T00:16:36.519Z,0
2016-11-03T00:17:49.616Z,0
2016-11-03T00:19:02.125Z,0
2016-11-03T00:20:15.666Z,0
2016-11-03T00:21:29.242Z,0
2016-11-03T00:22:42.355Z,0
2016-11-03T00:23:55.475Z,0
2016-11-03T00:25:09.109Z,0
2016-11-03T00:26:21.128Z,0
2016-11-03T00:27:33.609Z,0
2016-11-03T00:28:46.157Z,0
2016-11-03T00:29:58.747Z,0
2016-11-03T00:31:11.334Z,0
2016-11-03T00:32:24.958Z,0
2016-11-03T00:33:37.563Z,0
2016-11-03T00:34:50.710Z,0
2016-11-03T00:36:03.716Z,0
2016-11-03T00:37:16.903Z,0
2016-11-03T00:38:30.519Z,0
2016-11-03T00:39:43.634Z,0
2016-11-03T00:40:56.187Z,0
2016-11-03T00:42:09.246Z,0
2016-11-03T00:43:21.741Z,0
2016-11-03T00:44:34.258Z,0
2016-11-03T00:45:47.799Z,0
2016-11-03T00:47:00.875Z,0
2016-11-03T00:48:13.356Z,0
2016-11-03T00:49:26.417Z,0
2016-11-03T00:50:39.478Z,0
2016-11-03T00:51:53.157Z,0
2016-11-03T00:53:06.177Z,0
2016-11-03T00:54:19.771Z,0
2016-11-03T00:55:32.342Z,0
2016-11-03T00:56:44.926Z,0
2016-11-03T00:57:56.952Z,0
2016-11-03T00:59:10.053Z,0
2016-11-03T01:00:22.533Z,0
2016-11-03T01:01:36.146Z,0
2016-11-03T01:02:49.747Z,0
2016-11-03T01:04:02.299Z,0
2016-11-03T01:05:14.307Z,0
2016-11-03T01:06:26.846Z,0
2016-11-03T01:07:40.504Z,0
2016-11-03T01:08:53.667Z,0
2016-11-03T01:10:06.761Z,0
2016-11-03T01:11:19.862Z,0
2016-11-03T01:12:32.990Z,0
2016-11-03T01:13:46.060Z,0
2016-11-03T01:14:57.507Z,0
2016-11-03T01:16:10.043Z,0
2016-11-03T01:17:23.074Z,0
2016-11-03T01:18:36.245Z,0
2016-11-03T01:19:48.291Z,0
2016-11-03T01:21:00.881Z,0
2016-11-03T01:22:13.974Z,0
2016-11-03T01:23:27.097Z,0
2016-11-03T01:24:40.140Z,0
2016-11-03T01:25:53.775Z,0
2016-11-03T01:27:07.314Z,0
2016-11-03T01:28:20.916Z,0
2016-11-03T01:29:34.493Z,0
2016-11-03T01:30:47.123Z,0
2016-11-03T01:32:00.164Z,0
2016-11-03T01:33:13.232Z,0
2016-11-03T01:34:26.307Z,0
2016-11-03T01:35:39.904Z,0
2016-11-03T01:36:52.936Z,0
2016-11-03T01:38:06.576Z,0
2016-11-03T01:39:19.612Z,0
2016-11-03T01:40:32.605Z,0
2016-11-03T01:41:46.147Z,0
2016-11-03T01:42:59.792Z,0
2016-11-03T01:44:11.795Z,0
2016-11-03T01:45:24.868Z,0
2016-11-03T01:46:37.911Z,0
2016-11-03T01:47:49.940Z,0
2016-11-03T01:49:02.471Z,0
2016-11-03T01:50:15.558Z,0
2016-11-03T01:51:28.571Z,0
2016-11-03T01:52:42.221Z,0
2016-11-03T01:53:55.250Z,0
2016-11-03T01:55:08.809Z,0
2016-11-03T01:56:21.828Z,0
2016-11-03T01:57:35.465Z,0
2016-11-03T01:58:48.529Z,0
2016-11-03T02:00:01.508Z,0
2016-11-03T02:01:14.546Z,0
2016-11-03T02:02:26.554Z,0
2016-11-03T02:03:39.549Z,0
2016-11-03T02:04:52.103Z,0
2016-11-03T02:06:05.743Z,0
2016-11-03T02:07:18.274Z,0
2016-11-03T02:08:31.371Z,0
2016-11-03T02:09:43.836Z,0
2016-11-03T02:10:57.497Z,0
2016-11-03T02:12:11.038Z,0
2016-11-03T02:13:24.540Z,0
2016-11-03T02:14:37.655Z,0
2016-11-03T02:15:49.706Z,0
2016-11-03T02:17:02.766Z,0
2016-11-03T02:18:15.817Z,0
2016-11-03T02:19:28.400Z,0
2016-11-03T02:20:42.046Z,0
2016-11-03T02:21:54.571Z,0
2016-11-03T02:23:07.643Z,0
2016-11-03T02:24:21.274Z,0
2016-11-03T02:25:34.330Z,0
2016-11-03T02:26:47.396Z,0
2016-11-03T02:28:00.383Z,0
2016-11-03T02:29:13.945Z,0
2016-11-03T02:30:25.971Z,0
2016-11-03T02:31:38.533Z,0
2016-11-03T02:32:51.651Z,0
2016-11-03T02:34:03.655Z,0
2016-11-03T02:35:17.292Z,0
2016-11-03T02:36:30.386Z,0
2016-11-03T02:37:43.504Z,0
2016-11-03T02:38:55.972Z,0
2016-11-03T02:40:09.645Z,0
2016-11-03T02:41:22.219Z,0
2016-11-03T02:42:35.299Z,0
2016-11-03T02:43:48.442Z,0
2016-11-03T02:45:01.014Z,0
2016-11-03T02:46:14.690Z,0
2016-11-03T02:47:27.757Z,0
2016-11-03T02:48:40.249Z,0
2016-11-03T02:49:52.806Z,0
2016-11-03T02:51:04.782Z,0
2016-11-03T02:52:18.347Z,0
2016-11-03T02:53:31.865Z,0
2016-11-03T02:54:45.457Z,0
2016-11-03T02:55:58.048Z,0
2016-11-03T02:57:11.083Z,0
2016-11-03T02:58:23.078Z,0
2016-11-03T02:59:36.102Z,0
2016-11-03T03:00:49.181Z,0
2016-11-03T03:02:02.310Z,0
2016-11-03T03:03:15.399Z,0
2016-11-03T03:04:28.959Z,0
2016-11-03T03:05:41.983Z,0
2016-11-03T03:06:54.984Z,0
2016-11-03T03:08:07.561Z,0
2016-11-03T03:09:19.606Z,0
2016-11-03T03:10:32.046Z,0
2016-11-03T03:11:45.139Z,0
2016-11-03T03:12:58.214Z,0
2016-11-03T03:14:11.325Z,0
2016-11-03T03:15:24.399Z,0
2016-11-03T03:16:37.423Z,0
2016-11-03T03:17:50.541Z,0
2016-11-03T03:19:03.057Z,0
2016-11-03T03:20:14.489Z,0
2016-11-03T03:21:26.467Z,0
2016-11-03T03:22:39.611Z,0
2016-11-03T03:23:53.211Z,0
2016-11-03T03:25:05.188Z,0
2016-11-03T03:26:16.666Z,0
2016-11-03T03:27:30.341Z,0
2016-11-03T03:28:43.500Z,0
2016-11-03T03:29:56.569Z,0
2016-11-03T03:31:09.727Z,0
2016-11-03T03:32:23.317Z,0
2016-11-03T03:33:35.871Z,0
2016-11-03T03:34:48.936Z,0
2016-11-03T03:36:02.020Z,0
2016-11-03T03:37:15.087Z,0
2016-11-03T03:38:27.629Z,0
2016-11-03T03:39:40.676Z,0
2016-11-03T03:40:53.716Z,0
2016-11-03T03:42:07.345Z,0
2016-11-03T03:43:20.444Z,0
2016-11-03T03:44:33.618Z,0
2016-11-03T03:45:47.199Z,0
2016-11-03T03:47:00.250Z,0
2016-11-03T03:48:13.804Z,0
2016-11-03T03:49:26.362Z,0
2016-11-03T03:50:38.879Z,0
2016-11-03T03:51:51.964Z,0
2016-11-03T03:53:05.042Z,0
2016-11-03T03:54:18.129Z,0
2016-11-03T03:55:31.185Z,0
2016-11-03T03:56:44.798Z,0
2016-11-03T03:57:56.786Z,0
2016-11-03T03:59:08.784Z,0
2016-11-03T04:00:21.309Z,0
2016-11-03T04:01:34.402Z,0
2016-11-03T04:02:47.471Z,0
2016-11-03T04:03:59.979Z,0
2016-11-03T04:05:12.553Z,0
2016-11-03T04:06:25.674Z,0
2016-11-03T04:07:38.702Z,0
2016-11-03T04:08:51.885Z,0
2016-11-03T04:10:04.942Z,0
2016-11-03T04:11:17.468Z,0
2016-11-03T04:12:29.535Z,0
2016-11-03T04:13:42.609Z,0
2016-11-03T04:14:55.710Z,0
2016-11-03T04:16:08.785Z,0
2016-11-03T04:17:22.351Z,0
2016-11-03T04:18:36.119Z,0
2016-11-03T04:19:49.243Z,0
2016-11-03T04:21:02.284Z,0
2016-11-03T04:22:15.357Z,0
2016-11-03T04:23:28.516Z,0
2016-11-03T04:24:41.541Z,0
2016-11-03T04:25:54.556Z,0
2016-11-03T04:27:07.606Z,0
2016-11-03T04:28:20.126Z,0
2016-11-03T04:29:33.193Z,0
2016-11-03T04:30:45.737Z,0
2016-11-03T04:31:58.289Z,0
2016-11-03T04:33:10.790Z,0
2016-11-03T04:34:24.381Z,0
2016-11-03T04:35:36.892Z,0
2016-11-03T04:36:50.456Z,0
2016-11-03T04:38:04.075Z,0
2016-11-03T04:39:16.605Z,0
2016-11-03T04:40:28.048Z,0
2016-11-03T04:41:41.153Z,0
2016-11-03T04:42:54.233Z,0
2016-11-03T04:44:07.305Z,0
2016-11-03T04:45:20.418Z,0
2016-11-03T04:46:33.457Z,0
2016-11-03T04:47:47.039Z,0
2016-11-03T04:48:59.496Z,0
2016-11-03T04:50:12.000Z,0
2016-11-03T04:51:25.045Z,0
2016-11-03T04:52:38.077Z,0
2016-11-03T04:53:50.702Z,0
2016-11-03T04:55:03.748Z,0
2016-11-03T04:56:16.274Z,0
2016-11-03T04:57:28.799Z,0
2016-11-03T04:58:41.356Z,0
2016-11-03T04:59:54.327Z,0
2016-11-03T05:01:07.414Z,0
2016-11-03T05:02:20.524Z,0
2016-11-03T05:03:33.060Z,0
2016-11-03T05:04:45.025Z,0
2016-11-03T05:05:58.087Z,0
2016-11-03T05:07:09.578Z,0
2016-11-03T05:08:23.164Z,0
2016-11-03T05:09:35.168Z,0
2016-11-03T05:10:48.758Z,0
2016-11-03T05:12:01.223Z,0
2016-11-03T05:13:14.307Z,0
2016-11-03T05:14:27.869Z,0
2016-11-03T05:15:40.985Z,0
2016-11-03T05:16:54.553Z,0
2016-11-03T05:18:07.635Z,0
2016-11-03T05:19:20.140Z,0
2016-11-03T05:20:32.179Z,0
2016-11-03T05:21:44.678Z,0
2016-11-03T05:22:57.162Z,0
2016-11-03T05:24:10.201Z,0
2016-11-03T05:25:22.807Z,0
2016-11-03T05:26:35.899Z,0
2016-11-03T05:27:48.954Z,0
2016-11-03T05:29:02.001Z,0
2016-11-03T05:30:14.645Z,0
2016-11-03T05:31:28.214Z,0
2016-11-03T05:32:40.747Z,0
2016-11-03T05:33:53.872Z,0
2016-11-03T05:35:05.871Z,0
2016-11-03T05:36:17.871Z,0
2016-11-03T05:37:30.393Z,0
2016-11-03T05:38:43.964Z,0
2016-11-03T05:39:57.007Z,0
2016-11-03T05:41:10.031Z,0
2016-11-03T05:42:23.055Z,0
2016-11-03T05:43:35.593Z,0
2016-11-03T05:44:48.658Z,0
2016-11-03T05:46:01.727Z,0
2016-11-03T05:47:14.775Z,0
2016-11-03T05:48:27.842Z,0
2016-11-03T05:49:40.844Z,0
2016-11-03T05:50:53.338Z,0
2016-11-03T05:52:05.296Z,0
2016-11-03T05:53:18.888Z,0
2016-11-03T05:54:31.999Z,0
2016-11-03T05:55:45.129Z,0
2016-11-03T05:56:57.133Z,0
2016-11-03T05:58:10.187Z,0
2016-11-03T05:59:23.251Z,0
2016-11-03T06:00:36.324Z,0
2016-11-03T06:01:48.333Z,0
2016-11-03T06:03:01.400Z,0
2016-11-03T06:04:14.485Z,0
2016-11-03T06:05:27.573Z,0
2016-11-03T06:06:40.102Z,0
2016-11-03T06:07:53.107Z,0
2016-11-03T06:09:05.120Z,0
2016-11-03T06:10:18.160Z,0
2016-11-03T06:11:30.652Z,0
2016-11-03T06:12:44.248Z,0
2016-11-03T06:13:57.254Z,0
2016-11-03T06:15:10.321Z,0
2016-11-03T06:16:23.948Z,0
2016-11-03T06:17:36.991Z,0
2016-11-03T06:18:50.093Z,0
2016-11-03T06:20:03.661Z,0
2016-11-03T06:21:17.252Z,0
2016-11-03T06:22:29.761Z,0
2016-11-03T06:23:43.368Z,0
2016-11-03T06:24:55.327Z,0
2016-11-03T06:26:08.315Z,0
2016-11-03T06:27:20.837Z,0
2016-11-03T06:28:32.817Z,0
2016-11-03T06:29:45.961Z,0
2016-11-03T06:30:58.485Z,0
2016-11-03T06:32:11.522Z,0
2016-11-03T06:33:24.072Z,0
2016-11-03T06:34:37.138Z,0
2016-11-03T06:35:50.754Z,0
2016-11-03T06:37:03.796Z,0
2016-11-03T06:38:17.384Z,0
2016-11-03T06:39:29.962Z,0
2016-11-03T06:40:43.056Z,0
2016-11-03T06:41:56.119Z,0
2016-11-03T06:43:09.220Z,0
2016-11-03T06:44:22.265Z,0
2016-11-03T06:45:35.844Z,0
2016-11-03T06:46:48.935Z,0
2016-11-03T06:48:02.493Z,0
2016-11-03T06:49:15.618Z,0
2016-11-03T06:50:28.643Z,0
2016-11-03T06:51:41.171Z,0
2016-11-03T06:52:54.734Z,0
2016-11-03T06:54:07.322Z,0
2016-11-03T06:55:20.429Z,0
2016-11-03T06:56:33.468Z,0
2016-11-03T06:57:46.976Z,0
2016-11-03T06:59:00.532Z,0
2016-11-03T07:00:12.544Z,0
2016-11-03T07:01:25.658Z,0
2016-11-03T07:02:38.636Z,0
2016-11-03T07:03:51.160Z,0
2016-11-03T07:05:03.749Z,0
2016-11-03T07:06:17.378Z,0
2016-11-03T07:07:30.948Z,0
2016-11-03T07:08:44.508Z,0
2016-11-03T07:09:57.581Z,0
2016-11-03T07:11:10.595Z,0
2016-11-03T07:12:23.569Z,0
2016-11-03T07:13:37.187Z,0
2016-11-03T07:14:50.271Z,0
2016-11-03T07:16:03.308Z,0
2016-11-03T07:17:16.411Z,0
2016-11-03T07:18:28.920Z,0
2016-11-03T07:19:41.522Z,0
2016-11-03T07:20:54.126Z,0
2016-11-03T07:22:07.810Z,0
2016-11-03T07:23:19.324Z,0
2016-11-03T07:24:32.375Z,0
2016-11-03T07:25:45.429Z,0
2016-11-03T07:26:58.994Z,0
2016-11-03T07:28:10.945Z,0
2016-11-03T07:29:24.071Z,0
2016-11-03T07:30:37.094Z,0
2016-11-03T07:31:50.103Z,0
2016-11-03T07:33:02.698Z,0
2016-11-03T07:34:15.206Z,0
2016-11-03T07:35:27.216Z,0
2016-11-03T07:36:39.716Z,0
2016-11-03T07:37:52.846Z,0
2016-11-03T07:39:04.267Z,0
2016-11-03T07:40:16.766Z,0
2016-11-03T07:41:29.362Z,0
2016-11-03T07:42:41.963Z,0
2016-11-03T07:43:53.930Z,0
2016-11-03T07:45:07.567Z,0
2016-11-03T07:46:20.607Z,0
2016-11-03T07:47:33.575Z,0
2016-11-03T07:48:46.643Z,0
2016-11-03T07:49:59.192Z,0
2016-11-03T07:51:12.749Z,0
2016-11-03T07:52:26.448Z,0
2016-11-03T07:53:38.977Z,0
2016-11-03T07:54:52.599Z,0
2016-11-03T07:56:06.156Z,0
2016-11-03T07:57:19.235Z,0
2016-11-03T07:58:32.314Z,0
2016-11-03T07:59:45.895Z,0
2016-11-03T08:00:58.964Z,0
2016-11-03T08:02:11.484Z,0
2016-11-03T08:03:24.568Z,0
2016-11-03T08:04:36.511Z,4
2016-11-03T08:05:49.589Z,4
2016-11-03T08:07:03.188Z,0
2016-11-03T08:08:16.253Z,4
2016-11-03T08:09:28.813Z,4
2016-11-03T08:10:41.869Z,4
2016-11-03T08:11:54.902Z,4
2016-11-03T08:13:07.444Z,8
2016-11-03T08:14:19.520Z,8
2016-11-03T08:15:33.101Z,8
2016-11-03T08:16:45.730Z,12
2016-11-03T08:17:58.245Z,16
2016-11-03T08:19:10.742Z,20
2016-11-03T08:20:23.248Z,20
2016-11-03T08:21:36.332Z,28
2016-11-03T08:22:49.449Z,32
2016-11-03T08:24:02.029Z,36
2016-11-03T08:25:15.053Z,40
2016-11-03T08:26:27.620Z,48
2016-11-03T08:27:40.690Z,60
2016-11-03T08:28:52.667Z,68
2016-11-03T08:30:05.706Z,72
2016-11-03T08:31:18.206Z,84
2016-11-03T08:32:30.760Z,96
2016-11-03T08:33:44.359Z,108
2016-11-03T08:34:57.424Z,120
2016-11-03T08:36:09.975Z,140
2016-11-03T08:37:23.090Z,152
2016-11-03T08:38:34.501Z,160
2016-11-03T08:39:47.580Z,160
2016-11-03T08:41:00.187Z,156
2016-11-03T08:42:13.779Z,164
2016-11-03T08:43:26.328Z,172
2016-11-03T08:44:39.077Z,200
2016-11-03T08:45:52.162Z,248
2016-11-03T08:47:05.710Z,276
2016-11-03T08:48:19.335Z,284
2016-11-03T08:49:32.940Z,328
2016-11-03T08:50:46.015Z,404
2016-11-03T08:51:59.086Z,456
2016-11-03T08:53:11.634Z,512
2016-11-03T08:54:24.669Z,588
2016-11-03T08:55:38.281Z,656
2016-11-03T08:56:51.388Z,760
2016-11-03T08:58:04.420Z,868
2016-11-03T08:59:16.905Z,924
2016-11-03T09:00:29.953Z,948
2016-11-03T09:01:43.567Z,872
2016-11-03T09:02:56.596Z,840
2016-11-03T09:04:10.198Z,800
2016-11-03T09:05:23.840Z,772
2016-11-03T09:06:36.856Z,804
2016-11-03T09:07:50.478Z,876
2016-11-03T09:09:03.108Z,932
2016-11-03T09:10:16.180Z,928
2016-11-03T09:11:28.166Z,884
2016-11-03T09:12:40.692Z,884
2016-11-03T09:13:54.265Z,884
2016-11-03T09:15:07.272Z,824
2016-11-03T09:16:20.286Z,720
2016-11-03T09:17:33.286Z,620
2016-11-03T09:18:46.880Z,528
2016-11-03T09:20:00.387Z,456
2016-11-03T09:21:13.925Z,424
2016-11-03T09:22:27.469Z,424
2016-11-03T09:23:40.534Z,432
2016-11-03T09:24:53.636Z,448
2016-11-03T09:26:07.233Z,452
2016-11-03T09:27:20.360Z,452
2016-11-03T09:28:32.890Z,440
2016-11-03T09:29:45.992Z,432
2016-11-03T09:30:59.641Z,444
2016-11-03T09:32:13.199Z,460
2016-11-03T09:33:26.212Z,496
2016-11-03T09:34:39.835Z,540
2016-11-03T09:35:53.475Z,560
2016-11-03T09:37:06.604Z,568
2016-11-03T09:38:20.229Z,624
2016-11-03T09:39:33.285Z,736
2016-11-03T09:40:45.880Z,852
2016-11-03T09:41:57.930Z,920
2016-11-03T09:43:11.015Z,972
2016-11-03T09:44:24.082Z,1044
2016-11-03T09:45:36.037Z,1064
2016-11-03T09:46:49.599Z,1012
2016-11-03T09:48:01.610Z,956
2016-11-03T09:49:15.215Z,920
2016-11-03T09:50:28.802Z,904
2016-11-03T09:51:42.424Z,876
2016-11-03T09:52:55.984Z,936
2016-11-03T09:54:09.557Z,972
2016-11-03T09:55:23.201Z,1000
2016-11-03T09:56:36.779Z,992
2016-11-03T09:57:50.331Z,920
2016-11-03T09:59:03.972Z,776
2016-11-03T10:00:17.610Z,636
2016-11-03T10:01:31.219Z,556
2016-11-03T10:02:44.289Z,492
2016-11-03T10:03:57.988Z,452
2016-11-03T10:05:11.185Z,408
2016-11-03T10:06:24.229Z,380
2016-11-03T10:07:37.286Z,392
2016-11-03T10:08:50.353Z,412
2016-11-03T10:10:03.416Z,448
2016-11-03T10:11:15.909Z,488
2016-11-03T10:12:29.529Z,536
2016-11-03T10:13:42.631Z,580
2016-11-03T10:14:54.603Z,624
2016-11-03T10:16:06.539Z,660
2016-11-03T10:17:19.639Z,664
2016-11-03T10:18:31.657Z,640
2016-11-03T10:19:44.761Z,648
2016-11-03T10:20:58.407Z,672
2016-11-03T10:22:10.867Z,684
2016-11-03T10:23:23.394Z,648
2016-11-03T10:24:35.356Z,600
2016-11-03T10:25:48.471Z,576
2016-11-03T10:27:01.036Z,568
2016-11-03T10:28:14.118Z,536
2016-11-03T10:29:26.619Z,464
2016-11-03T10:30:38.583Z,408
2016-11-03T10:31:52.277Z,372
2016-11-03T10:33:05.349Z,372
2016-11-03T10:34:18.893Z,388
2016-11-03T10:35:31.945Z,424
2016-11-03T10:36:45.519Z,492
2016-11-03T10:37:57.489Z,540
2016-11-03T10:39:10.064Z,580
2016-11-03T10:40:22.084Z,648
2016-11-03T10:41:34.600Z,720
2016-11-03T10:42:47.722Z,768
2016-11-03T10:44:00.768Z,768
2016-11-03T10:45:14.326Z,768
2016-11-03T10:46:27.420Z,860
2016-11-03T10:47:40.498Z,960
2016-11-03T10:48:53.031Z,1024
2016-11-03T10:50:05.719Z,1040
2016-11-03T10:51:19.261Z,1008
2016-11-03T10:52:32.370Z,988
2016-11-03T10:53:45.952Z,988
2016-11-03T10:54:59.018Z,980
2016-11-03T10:56:12.082Z,952
2016-11-03T10:57:23.543Z,808
2016-11-03T10:58:37.136Z,604
2016-11-03T10:59:50.209Z,500
2016-11-03T11:01:02.713Z,444
2016-11-03T11:02:15.254Z,392
2016-11-03T11:03:28.319Z,364
2016-11-03T11:04:40.837Z,352
2016-11-03T11:05:53.352Z,384
2016-11-03T11:07:06.343Z,536
2016-11-03T11:08:19.475Z,812
2016-11-03T11:09:33.068Z,1040
2016-11-03T11:10:46.162Z,1072
2016-11-03T11:11:59.849Z,1092
2016-11-03T11:13:12.848Z,1020
2016-11-03T11:14:26.406Z,948
2016-11-03T11:15:39.454Z,780
2016-11-03T11:16:52.547Z,588
2016-11-03T11:18:05.646Z,520
2016-11-03T11:19:18.179Z,408
2016-11-03T11:20:31.768Z,380
2016-11-03T11:21:44.295Z,428
2016-11-03T11:22:56.221Z,552
2016-11-03T11:24:09.225Z,752
2016-11-03T11:25:22.311Z,1084
2016-11-03T11:26:35.854Z,1292
2016-11-03T11:27:48.381Z,1312
2016-11-03T11:29:02.031Z,1240
2016-11-03T11:30:14.528Z,1240
2016-11-03T11:31:27.574Z,1228
2016-11-03T11:32:40.589Z,1132
2016-11-03T11:33:53.717Z,964
2016-11-03T11:35:06.749Z,808
2016-11-03T11:36:19.954Z,644
2016-11-03T11:37:33.055Z,580
2016-11-03T11:38:46.666Z,544
2016-11-03T11:40:00.297Z,580
2016-11-03T11:41:13.317Z,708
2016-11-03T11:42:26.432Z,828
2016-11-03T11:43:40.006Z,980
2016-11-03T11:44:53.627Z,1108
2016-11-03T11:46:07.230Z,992
2016-11-03T11:47:19.272Z,960
2016-11-03T11:48:32.344Z,896
2016-11-03T11:49:45.368Z,896
2016-11-03T11:50:58.434Z,940
2016-11-03T11:52:12.063Z,976
2016-11-03T11:53:25.067Z,1056
2016-11-03T11:54:38.083Z,1252
2016-11-03T11:55:51.084Z,1524
2016-11-03T11:57:04.064Z,1648
2016-11-03T11:58:17.091Z,1480
2016-11-03T11:59:30.220Z,1448
2016-11-03T12:00:42.750Z,1492
2016-11-03T12:01:56.288Z,1628
2016-11-03T12:03:08.811Z,1696
2016-11-03T12:04:22.382Z,1572
2016-11-03T12:05:35.454Z,1448
2016-11-03T12:06:48.598Z,1240
2016-11-03T12:08:01.697Z,1108
2016-11-03T12:09:15.234Z,948
2016-11-03T12:10:28.307Z,792
2016-11-03T12:11:41.919Z,608
2016-11-03T12:12:53.952Z,660
2016-11-03T12:14:07.005Z,988
2016-11-03T12:15:20.619Z,1136
2016-11-03T12:16:34.153Z,1368
2016-11-03T12:17:47.278Z,1652
2016-11-03T12:19:00.344Z,1600
2016-11-03T12:20:13.363Z,1660
2016-11-03T12:21:27.029Z,1652
2016-11-03T12:22:39.026Z,1744
2016-11-03T12:23:52.131Z,1844
2016-11-03T12:25:05.175Z,1904
2016-11-03T12:26:18.323Z,1936
2016-11-03T12:27:31.395Z,2064
2016-11-03T12:28:45.004Z,2000
2016-11-03T12:29:58.601Z,1868
2016-11-03T12:31:11.605Z,2060
2016-11-03T12:32:25.188Z,2028
2016-11-03T12:33:37.697Z,2008
2016-11-03T12:34:51.343Z,1980
2016-11-03T12:36:04.398Z,2248
2016-11-03T12:37:17.995Z,2136
2016-11-03T12:38:30.990Z,2320
2016-11-03T12:39:43.562Z,2736
2016-11-03T12:40:56.603Z,2584
2016-11-03T12:42:10.222Z,2348
2016-11-03T12:43:23.200Z,2288
2016-11-03T12:44:35.158Z,2308
2016-11-03T12:45:48.206Z,2548
2016-11-03T12:47:00.834Z,3000
2016-11-03T12:48:13.827Z,3244
2016-11-03T12:49:27.383Z,2964
2016-11-03T12:50:40.472Z,2196
2016-11-03T12:51:52.923Z,1896
2016-11-03T12:53:04.356Z,2028
2016-11-03T12:54:17.468Z,1948
2016-11-03T12:55:31.020Z,2928
2016-11-03T12:56:44.601Z,5492
2016-11-03T12:57:58.192Z,9680
2016-11-03T12:59:11.760Z,11116
2016-11-03T13:00:24.327Z,10044
2016-11-03T13:01:37.962Z,8044
2016-11-03T13:02:51.034Z,6708
2016-11-03T13:04:04.075Z,9288
2016-11-03T13:05:16.626Z,10244
2016-11-03T13:06:29.713Z,8408
2016-11-03T13:07:42.742Z,6356
2016-11-03T13:08:56.287Z,5700
2016-11-03T13:10:09.335Z,4756
2016-11-03T13:11:20.803Z,3508
2016-11-03T13:12:33.836Z,4232
2016-11-03T13:13:46.397Z,4892
2016-11-03T13:14:58.462Z,5936
2016-11-03T13:16:12.092Z,5972
2016-11-03T13:17:25.102Z,5364
2016-11-03T13:18:37.186Z,6084
2016-11-03T13:19:48.626Z,8420
2016-11-03T13:21:01.245Z,8384
2016-11-03T13:22:14.363Z,6940
2016-11-03T13:23:26.894Z,5332
2016-11-03T13:24:39.971Z,4712
2016-11-03T13:25:53.599Z,4520
2016-11-03T13:27:07.241Z,3960
2016-11-03T13:28:20.344Z,3460
2016-11-03T13:29:32.905Z,2724
2016-11-03T13:30:44.862Z,2384
2016-11-03T13:31:57.924Z,2584
2016-11-03T13:33:11.516Z,2752
2016-11-03T13:34:24.535Z,2856
2016-11-03T13:35:37.037Z,4548
2016-11-03T13:36:50.352Z,4200
2016-11-03T13:38:03.406Z,4320
2016-11-03T13:39:16.462Z,4076
2016-11-03T13:40:29.499Z,4068
2016-11-03T13:41:41.980Z,3940
2016-11-03T13:42:55.131Z,3488
2016-11-03T13:44:08.821Z,3016
2016-11-03T13:45:22.458Z,2732
2016-11-03T13:46:35.536Z,2892
2016-11-03T13:47:48.681Z,3260
2016-11-03T13:49:01.760Z,4028
2016-11-03T13:50:14.806Z,4356
2016-11-03T13:51:28.449Z,4876
2016-11-03T13:52:41.558Z,4556
2016-11-03T13:53:54.111Z,4400
2016-11-03T13:55:06.683Z,4716
2016-11-03T13:56:20.338Z,4548
2016-11-03T13:57:32.934Z,4240
2016-11-03T13:58:46.551Z,4592
2016-11-03T14:00:00.213Z,4404
2016-11-03T14:01:13.807Z,3468
2016-11-03T14:02:26.930Z,3468
2016-11-03T14:03:40.064Z,3300
2016-11-03T14:04:53.184Z,3832
2016-11-03T14:06:06.935Z,4824
2016-11-03T14:07:19.530Z,5772
2016-11-03T14:08:32.602Z,6280
2016-11-03T14:09:46.240Z,4848
2016-11-03T14:10:59.404Z,3384
2016-11-03T14:12:12.529Z,3404
2016-11-03T14:13:26.127Z,3672
2016-11-03T14:14:39.761Z,4000
2016-11-03T14:15:51.727Z,3468
2016-11-03T14:17:05.390Z,3236
2016-11-03T14:18:19.000Z,3416
2016-11-03T14:19:32.118Z,3384
2016-11-03T14:20:45.251Z,3456
2016-11-03T14:21:58.830Z,3916
2016-11-03T14:23:11.961Z,4420
2016-11-03T14:24:24.511Z,4504
2016-11-03T14:25:38.100Z,4884
2016-11-03T14:26:50.141Z,4744
2016-11-03T14:28:03.754Z,3708
2016-11-03T14:29:17.378Z,3312
2016-11-03T14:30:30.386Z,3332
2016-11-03T14:31:44.094Z,3336
2016-11-03T14:32:56.680Z,3532
2016-11-03T14:34:09.757Z,4336
2016-11-03T14:35:23.531Z,4572
2016-11-03T14:36:37.215Z,4208
2016-11-03T14:37:50.385Z,4732
2016-11-03T14:39:03.570Z,5516
2016-11-03T14:40:16.754Z,5936
2016-11-03T14:41:29.802Z,6184
2016-11-03T14:42:43.400Z,6024
2016-11-03T14:43:57.057Z,5408
2016-11-03T14:45:10.219Z,5128
2016-11-03T14:46:24.068Z,4788
2016-11-03T14:47:36.721Z,4392
2016-11-03T14:48:48.785Z,5284
2016-11-03T14:50:01.927Z,4536
2016-11-03T14:51:15.578Z,3960
2016-11-03T14:52:29.201Z,4284
2016-11-03T14:53:42.879Z,4740
2016-11-03T14:54:55.446Z,4152
2016-11-03T14:56:08.537Z,4128
2016-11-03T14:57:20.592Z,5484
2016-11-03T14:58:32.707Z,6512
2016-11-03T14:59:45.373Z,6088
2016-11-03T15:00:58.011Z,5468
2016-11-03T15:02:10.616Z,5136
2016-11-03T15:03:23.751Z,5936
2016-11-03T15:04:37.475Z,5204
2016-11-03T15:05:51.484Z,4420
2016-11-03T15:07:05.186Z,4052
2016-11-03T15:08:18.747Z,4040
2016-11-03T15:09:32.456Z,4204
2016-11-03T15:10:45.594Z,4100
2016-11-03T15:11:59.276Z,3860
2016-11-03T15:13:12.393Z,3752
2016-11-03T15:14:25.520Z,3468
2016-11-03T15:15:38.678Z,3156
2016-11-03T15:16:51.200Z,2888
2016-11-03T15:18:03.744Z,2400
2016-11-03T15:19:17.407Z,2032
2016-11-03T15:20:30.585Z,1856
2016-11-03T15:21:43.686Z,1916
2016-11-03T15:22:57.348Z,2032
2016-11-03T15:24:09.951Z,2052
2016-11-03T15:25:23.050Z,2028
2016-11-03T15:26:36.410Z,1904
2016-11-03T15:27:49.562Z,1936
2016-11-03T15:29:02.157Z,2092
2016-11-03T15:30:15.736Z,2136
2016-11-03T15:31:29.309Z,2372
2016-11-03T15:32:42.402Z,2564
2016-11-03T15:33:54.995Z,2964
2016-11-03T15:35:07.621Z,3904
2016-11-03T15:36:20.846Z,4656
2016-11-03T15:37:33.402Z,5544
2016-11-03T15:38:45.958Z,5272
2016-11-03T15:39:59.606Z,3900
2016-11-03T15:41:12.628Z,3524
2016-11-03T15:42:25.739Z,3956
2016-11-03T15:43:37.810Z,4240
2016-11-03T15:44:50.941Z,4440
2016-11-03T15:46:04.630Z,3760
2016-11-03T15:47:17.225Z,3160
2016-11-03T15:48:30.911Z,2728
2016-11-03T15:49:44.484Z,2612
2016-11-03T15:50:56.517Z,2352
2016-11-03T15:52:09.575Z,2092
2016-11-03T15:53:23.235Z,1960
2016-11-03T15:54:35.791Z,2008
2016-11-03T15:55:48.982Z,2232
2016-11-03T15:57:02.060Z,1980
2016-11-03T15:58:15.597Z,1960
2016-11-03T15:59:28.745Z,2432
2016-11-03T16:00:41.869Z,2388
2016-11-03T16:01:54.963Z,1932
2016-11-03T16:03:07.498Z,1992
2016-11-03T16:04:21.069Z,2004
2016-11-03T16:05:34.746Z,2388
2016-11-03T16:06:47.971Z,2944
2016-11-03T16:08:01.606Z,3408
2016-11-03T16:09:14.788Z,3528
2016-11-03T16:10:28.399Z,3132
2016-11-03T16:11:41.478Z,2660
2016-11-03T16:12:54.548Z,2852
2016-11-03T16:14:07.650Z,4040
2016-11-03T16:15:20.758Z,5080
2016-11-03T16:16:34.362Z,3948
2016-11-03T16:17:47.458Z,2884
2016-11-03T16:19:00.536Z,2524
2016-11-03T16:20:14.218Z,2756
2016-11-03T16:21:27.894Z,3436
2016-11-03T16:22:41.031Z,4024
2016-11-03T16:23:54.148Z,3920
2016-11-03T16:25:07.341Z,4060
2016-11-03T16:26:19.910Z,4204
2016-11-03T16:27:33.563Z,5412
2016-11-03T16:28:45.681Z,5104
2016-11-03T16:29:58.251Z,3916
2016-11-03T16:31:11.381Z,4024
2016-11-03T16:32:24.004Z,4700
2016-11-03T16:33:37.732Z,5040
2016-11-03T16:34:51.351Z,5864
2016-11-03T16:36:04.451Z,6032
2016-11-03T16:37:16.472Z,5544
2016-11-03T16:38:29.621Z,5948
2016-11-03T16:39:42.708Z,5784
2016-11-03T16:40:55.800Z,4928
2016-11-03T16:42:08.392Z,4280
2016-11-03T16:43:20.941Z,4296
2016-11-03T16:44:33.009Z,4716
2016-11-03T16:45:46.028Z,4792
2016-11-03T16:46:58.645Z,5416
2016-11-03T16:48:10.206Z,5916
2016-11-03T16:49:23.823Z,6580
2016-11-03T16:50:36.440Z,5480
2016-11-03T16:51:49.009Z,4668
2016-11-03T16:53:02.588Z,4636
2016-11-03T16:54:15.176Z,4544
2016-11-03T16:55:28.275Z,3492
2016-11-03T16:56:41.340Z,3492
2016-11-03T16:57:53.905Z,3772
2016-11-03T16:59:06.559Z,3904
2016-11-03T17:00:19.132Z,4652
2016-11-03T17:01:32.252Z,4840
2016-11-03T17:02:45.452Z,4672
2016-11-03T17:03:58.046Z,5048
2016-11-03T17:05:11.671Z,4972
2016-11-03T17:06:24.219Z,5268
2016-11-03T17:07:36.774Z,4764
2016-11-03T17:08:49.819Z,5576